| time (UTC) | temp F | wind direction | speed MPH | gust MPH | rain 1hr in | rain 24hr in | rain mn in | humidity % | barometer mb |
| 20260906115746 | 72 | 98 | 0.0 | 0.0 | 0.00 | 0.00 | 0.00 | 99 | 1011.5 |
| 20260906114747 | 71 | 114 | 0.0 | 0.0 | 0.00 | 0.00 | 0.00 | 99 | 1011.4 |
| 20260906113743 | 71 | 114 | 0.0 | 0.0 | 0.00 | 0.00 | 0.00 | 99 | 1011.3 |
| 20260906112742 | 71 | 97 | 0.0 | 0.0 | 0.00 | 0.00 | 0.00 | 99 | 1011.3 |
| 20260906111738 | 71 | 98 | 0.0 | 0.0 | 0.00 | 0.00 | 0.00 | 99 | 1011.3 |
| 20260906110734 | 70 | 99 | 0.0 | 0.0 | 0.00 | 0.00 | 0.00 | 99 | 1011.4 |
| 20260906105734 | 70 | 100 | 0.0 | 0.0 | 0.00 | 0.00 | 0.00 | 99 | 1011.2 |
| 20260906104731 | 70 | 100 | 0.0 | 0.0 | 0.00 | 0.00 | 0.00 | 99 | 1011.1 |
| 20260906103727 | 70 | 100 | 0.0 | 1.0 | 0.00 | 0.00 | 0.00 | 99 | 1010.9 |
| 20260906102723 | 70 | 100 | 0.0 | 0.0 | 0.00 | 0.00 | 0.00 | 99 | 1011.0 |
| 20260906101724 | 69 | 99 | 0.0 | 0.0 | 0.00 | 0.00 | 0.00 | 99 | 1011.0 |
| 20260906100720 | 69 | 99 | 0.0 | 0.0 | 0.00 | 0.00 | 0.00 | 99 | 1010.4 |
| 20260906095720 | 69 | 99 | 0.0 | 0.0 | 0.00 | 0.00 | 0.00 | 99 | 1010.5 |
| 20260906094720 | 69 | 99 | 0.0 | 0.0 | 0.00 | 0.00 | 0.00 | 99 | 1010.1 |
| 20260906093718 | 69 | 99 | 0.0 | 0.0 | 0.00 | 0.00 | 0.00 | 99 | 1010.2 |
| 20260906092715 | 69 | 99 | 0.0 | 0.0 | 0.00 | 0.00 | 0.00 | 99 | 1010.2 |
| 20260906091710 | 69 | 99 | 0.0 | 0.0 | 0.00 | 0.00 | 0.00 | 99 | 1010.4 |
| 20260906090708 | 69 | 99 | 0.0 | 0.0 | 0.00 | 0.00 | 0.00 | 99 | 1010.3 |
| 20260906085707 | 69 | 99 | 1.0 | 1.0 | 0.00 | 0.00 | 0.00 | 99 | 1010.0 |
| 20260906084706 | 69 | 98 | 0.0 | 0.0 | 0.00 | 0.00 | 0.00 | 99 | 1010.3 |
| 20260906083701 | 69 | 98 | 0.0 | 0.0 | 0.00 | 0.00 | 0.00 | 99 | 1010.3 |
| 20260906082657 | 69 | 114 | 1.0 | 1.0 | 0.00 | 0.00 | 0.00 | 99 | 1010.2 |
| 20260906081655 | 69 | 114 | 0.0 | 0.0 | 0.00 | 0.00 | 0.00 | 99 | 1010.4 |
| 20260906080652 | 69 | 114 | 0.0 | 0.0 | 0.00 | 0.00 | 0.00 | 99 | 1010.3 |
| 20260906075648 | 69 | 114 | 0.0 | 0.0 | 0.00 | 0.00 | 0.00 | 99 | 1010.3 |
| 20260906074643 | 69 | 114 | 0.0 | 0.0 | 0.00 | 0.00 | 0.00 | 99 | 1010.3 |
| 20260906073643 | 70 | 113 | 1.0 | 1.0 | 0.00 | 0.00 | 0.00 | 99 | 1010.6 |
| 20260906072640 | 70 | 113 | 0.0 | 0.0 | 0.00 | 0.00 | 0.00 | 99 | 1010.6 |
| 20260906071638 | 70 | 113 | 0.0 | 0.0 | 0.00 | 0.00 | 0.00 | 99 | 1010.5 |
| 20260906070634 | 70 | 113 | 0.0 | 0.0 | 0.00 | 0.00 | 0.00 | 99 | 1010.2 |
| 20260906065629 | 70 | 113 | 0.0 | 0.0 | 0.00 | 0.00 | 0.00 | 99 | 1010.3 |
| 20260906064626 | 71 | 113 | 0.0 | 1.0 | 0.00 | 0.00 | 0.00 | 99 | 1010.4 |
| 20260906063621 | 71 | 118 | 0.0 | 1.0 | 0.00 | 0.00 | 0.00 | 99 | 1010.7 |
| 20260906062619 | 71 | 124 | 0.0 | 0.0 | 0.00 | 0.00 | 0.00 | 99 | 1010.2 |
| 20260906061614 | 71 | 120 | 0.0 | 0.0 | 0.00 | 0.00 | 0.00 | 99 | 1010.6 |
| 20260906060610 | 71 | 120 | 0.0 | 0.0 | 0.00 | 0.00 | 0.00 | 99 | 1010.7 |
| 20260906055609 | 71 | 120 | 0.0 | 0.0 | 0.00 | 0.00 | 0.00 | 99 | 1010.6 |
| 20260906054604 | 71 | 120 | 0.0 | 1.0 | 0.02 | 0.00 | 0.00 | 99 | 1010.6 |
| 20260906053601 | 71 | 120 | 0.0 | 0.0 | 0.00 | 0.00 | 0.00 | 99 | 1010.5 |
| 20260906052558 | 72 | 120 | 0.0 | 0.0 | 0.00 | 0.00 | 0.00 | 99 | 1010.4 |
| 20260906051556 | 72 | 120 | 0.0 | 0.0 | 0.00 | 0.00 | 0.00 | 99 | 1010.5 |
| 20260906050552 | 71 | 118 | 0.0 | 1.0 | 0.00 | 0.00 | 0.00 | 99 | 1010.1 |
| 20260906045551 | 71 | 110 | 0.0 | 1.0 | 0.00 | 0.00 | 0.00 | 99 | 1010.4 |
| 20260906044548 | 70 | 110 | 0.0 | 0.0 | 0.00 | 0.00 | 0.00 | 99 | 1010.4 |
| 20260906043545 | 70 | 110 | 0.0 | 1.0 | 0.00 | 0.00 | 0.00 | 99 | 1010.4 |
| 20260906042539 | 70 | 110 | 0.0 | 1.0 | 0.00 | 0.00 | 0.00 | 99 | 1010.8 |
| 20260906041536 | 70 | 110 | 0.0 | 0.0 | 0.00 | 0.00 | 0.00 | 99 | 1011.1 |
| 20260906040532 | 70 | 110 | 0.0 | 0.0 | 0.00 | 0.00 | 0.00 | 99 | 1011.3 |
| 20260906035528 | 70 | 110 | 0.0 | 0.0 | 0.00 | 0.28 | 0.28 | 99 | 1011.3 |
| 20260906034524 | 70 | 109 | 1.0 | 1.0 | 0.00 | 0.28 | 0.28 | 99 | 1011.1 |
| 20260906033520 | 70 | 111 | 0.0 | 0.0 | 0.00 | 0.28 | 0.28 | 99 | 1011.3 |
| 20260906032518 | 71 | 111 | 0.0 | 1.0 | 0.00 | 0.28 | 0.28 | 99 | 1011.5 |
| 20260906031514 | 71 | 106 | 0.0 | 0.0 | 0.00 | 0.28 | 0.28 | 99 | 1011.8 |
| 20260906030509 | 71 | 106 | 1.0 | 1.0 | 0.00 | 0.28 | 0.28 | 99 | 1011.6 |
| 20260906025507 | 70 | 123 | 0.0 | 1.0 | 0.00 | 0.28 | 0.28 | 99 | 1011.7 |
| 20260906024508 | 71 | 124 | 0.0 | 0.0 | 0.00 | 0.28 | 0.28 | 99 | 1011.4 |
| 20260906023504 | 71 | 124 | 1.0 | 1.0 | 0.00 | 0.28 | 0.28 | 99 | 1011.8 |
| 20260906022459 | 71 | 123 | 0.0 | 0.0 | 0.00 | 0.28 | 0.28 | 99 | 1011.6 |
| 20260906021455 | 71 | 124 | 0.0 | 1.0 | 0.00 | 0.28 | 0.28 | 99 | 1011.4 |
| 20260906020450 | 71 | 104 | 1.0 | 1.0 | 0.00 | 0.28 | 0.28 | 99 | 1011.5 |
| 20260906015449 | 71 | 103 | 0.0 | 0.0 | 0.00 | 0.28 | 0.28 | 99 | 1011.6 |
| 20260906014449 | 71 | 104 | 0.0 | 0.0 | 0.00 | 0.28 | 0.28 | 99 | 1011.7 |
| 20260906013446 | 71 | 115 | 1.0 | 1.0 | 0.00 | 0.28 | 0.28 | 99 | 1011.5 |
| 20260906012442 | 71 | 114 | 0.0 | 1.0 | 0.00 | 0.28 | 0.28 | 99 | 1011.5 |
| 20260906011437 | 71 | 139 | 2.0 | 2.0 | 0.00 | 0.28 | 0.28 | 99 | 1011.8 |
| 20260906010434 | 71 | 180 | 2.0 | 2.0 | 0.00 | 0.28 | 0.28 | 98 | 1011.8 |
| 20260906005429 | 71 | 131 | 1.0 | 1.0 | 0.00 | 0.28 | 0.28 | 98 | 1012.2 |
| 20260906004428 | 71 | 132 | 1.0 | 2.0 | 0.00 | 0.28 | 0.28 | 98 | 1012.0 |
| 20260906003425 | 71 | 119 | 1.0 | 1.0 | 0.00 | 0.28 | 0.28 | 98 | 1011.7 |
| 20260906002425 | 71 | 91 | 0.0 | 0.0 | 0.00 | 0.28 | 0.28 | 98 | 1011.3 |
| 20260906001421 | 71 | 133 | 1.0 | 2.0 | 0.00 | 0.28 | 0.28 | 98 | 1010.8 |
| 20260906000418 | 71 | 126 | 0.0 | 2.0 | 0.00 | 0.28 | 0.28 | 98 | 1011.0 |
| 20260905235412 | 71 | 87 | 1.0 | 1.0 | 0.00 | 0.28 | 0.28 | 98 | 1011.5 |
| 20260905234409 | 71 | 119 | 0.0 | 0.0 | 0.00 | 0.28 | 0.28 | 98 | 1010.7 |
| 20260905233404 | 71 | 87 | 0.0 | 2.0 | 0.00 | 0.28 | 0.28 | 97 | 1010.5 |
| 20260905232400 | 71 | 90 | 1.0 | 1.0 | 0.05 | 0.28 | 0.28 | 97 | 1010.1 |
| 20260905231355 | 71 | 79 | 1.0 | 2.0 | 0.33 | 0.28 | 0.28 | 96 | 1011.0 |
| 20260905230356 | 72 | 94 | 1.0 | 3.0 | 1.21 | 0.22 | 0.22 | 95 | 1013.3 |
| 20260905225350 | 81 | 102 | 3.0 | 9.0 | 0.02 | 0.00 | 0.00 | 79 | 1012.6 |
| 20260905224347 | 84 | 91 | 6.0 | 10.0 | 0.00 | 0.00 | 0.00 | 86 | 1011.9 |
| 20260905223345 | 84 | 105 | 1.0 | 2.0 | 0.00 | 0.00 | 0.00 | 88 | 1009.7 |
| 20260905222344 | 84 | 76 | 0.0 | 1.0 | 0.00 | 0.00 | 0.00 | 87 | 1009.8 |
| 20260905221343 | 85 | 85 | 1.0 | 2.0 | 0.00 | 0.00 | 0.00 | 85 | 1009.6 |
| 20260905220341 | 85 | 81 | 1.0 | 2.0 | 0.00 | 0.00 | 0.00 | 84 | 1009.3 |
| 20260905215335 | 86 | 102 | 0.0 | 1.0 | 0.00 | 0.00 | 0.00 | 83 | 1009.6 |
| 20260905214332 | 87 | 107 | 0.0 | 1.0 | 0.00 | 0.00 | 0.00 | 82 | 1009.2 |
| 20260905213329 | 87 | 90 | 0.0 | 1.0 | 0.00 | 0.00 | 0.00 | 81 | 1009.4 |
| 20260905212324 | 88 | 88 | 1.0 | 1.0 | 0.00 | 0.00 | 0.00 | 80 | 1009.2 |
| 20260905211319 | 90 | 81 | 1.0 | 2.0 | 0.00 | 0.00 | 0.00 | 76 | 1009.2 |
| 20260905210315 | 91 | 81 | 1.0 | 5.0 | 0.00 | 0.00 | 0.00 | 74 | 1009.2 |
| 20260905205315 | 91 | 44 | 3.0 | 5.0 | 0.00 | 0.00 | 0.00 | 72 | 1009.4 |
| 20260905204311 | 92 | 19 | 4.0 | 6.0 | 0.00 | 0.00 | 0.00 | 71 | 1009.0 |
| 20260905203305 | 91 | 60 | 1.0 | 2.0 | 0.00 | 0.00 | 0.00 | 72 | 1009.1 |
| 20260905202301 | 91 | 36 | 3.0 | 6.0 | 0.00 | 0.00 | 0.00 | 72 | 1009.3 |
| 20260905201258 | 91 | 64 | 2.0 | 5.0 | 0.00 | 0.00 | 0.00 | 72 | 1009.3 |
| 20260905200255 | 91 | 96 | 0.0 | 7.0 | 0.00 | 0.00 | 0.00 | 73 | 1009.5 |
| 20260905195253 | 91 | 92 | 1.0 | 5.0 | 0.00 | 0.00 | 0.00 | 74 | 1009.3 |
| 20260905194248 | 91 | 68 | 1.0 | 3.0 | 0.00 | 0.00 | 0.00 | 72 | 1009.6 |
| 20260905193243 | 91 | 91 | 1.0 | 2.0 | 0.00 | 0.00 | 0.00 | 73 | 1009.7 |
| 20260905192241 | 91 | 336 | 4.0 | 6.0 | 0.00 | 0.00 | 0.00 | 73 | 1009.9 |
| 20260905191238 | 91 | 84 | 2.0 | 6.0 | 0.00 | 0.00 | 0.00 | 73 | 1010.1 |
| 20260905190236 | 93 | 82 | 1.0 | 5.0 | 0.00 | 0.00 | 0.00 | 71 | 1010.1 |
| 20260905185236 | 94 | 23 | 1.0 | 3.0 | 0.00 | 0.00 | 0.00 | 68 | 1010.1 |
| 20260905184235 | 94 | 71 | 1.0 | 2.0 | 0.00 | 0.00 | 0.00 | 69 | 1010.6 |
| 20260905183231 | 95 | 65 | 1.0 | 2.0 | 0.00 | 0.00 | 0.00 | 67 | 1010.7 |
| 20260905182230 | 94 | 357 | 2.0 | 3.0 | 0.00 | 0.00 | 0.00 | 68 | 1010.6 |
| 20260905181230 | 95 | 52 | 2.0 | 6.0 | 0.00 | 0.00 | 0.00 | 69 | 1010.5 |
| 20260905180226 | 93 | 79 | 0.0 | 2.0 | 0.00 | 0.00 | 0.00 | 71 | 1010.8 |
| 20260905175227 | 94 | 68 | 2.0 | 5.0 | 0.00 | 0.00 | 0.00 | 66 | 1011.4 |
| 20260905174223 | 94 | 97 | 0.0 | 3.0 | 0.00 | 0.00 | 0.00 | 64 | 1011.3 |
| 20260905173221 | 95 | 105 | 3.0 | 3.0 | 0.00 | 0.00 | 0.00 | 63 | 1011.2 |
| 20260905172220 | 93 | 93 | 1.0 | 3.0 | 0.00 | 0.00 | 0.00 | 65 | 1011.3 |
| 20260905171218 | 93 | 90 | 2.0 | 6.0 | 0.00 | 0.00 | 0.00 | 64 | 1011.4 |
| 20260905170215 | 93 | 88 | 2.0 | 5.0 | 0.00 | 0.00 | 0.00 | 65 | 1011.5 |
| 20260905165210 | 92 | 123 | 3.0 | 3.0 | 0.00 | 0.00 | 0.00 | 68 | 1011.7 |
| 20260905164210 | 93 | 79 | 2.0 | 7.0 | 0.00 | 0.00 | 0.00 | 66 | 1011.7 |
| 20260905163208 | 92 | 80 | 1.0 | 2.0 | 0.00 | 0.00 | 0.00 | 69 | 1011.7 |
| 20260905162204 | 91 | 123 | 3.0 | 3.0 | 0.00 | 0.00 | 0.00 | 69 | 1012.0 |
| 20260905161203 | 91 | 88 | 0.0 | 2.0 | 0.00 | 0.00 | 0.00 | 70 | 1012.2 |
| 20260905160201 | 90 | 111 | 2.0 | 5.0 | 0.00 | 0.00 | 0.00 | 71 | 1012.3 |
| 20260905155201 | 90 | 83 | 1.0 | 2.0 | 0.00 | 0.00 | 0.00 | 74 | 1012.5 |
| 20260905154157 | 89 | 96 | 0.0 | 2.0 | 0.00 | 0.00 | 0.00 | 75 | 1012.8 |
| 20260905153154 | 88 | 86 | 1.0 | 5.0 | 0.00 | 0.00 | 0.00 | 76 | 1013.0 |
| 20260905152149 | 88 | 77 | 1.0 | 6.0 | 0.00 | 0.00 | 0.00 | 77 | 1013.0 |
| 20260905151145 | 88 | 110 | 3.0 | 6.0 | 0.00 | 0.00 | 0.00 | 77 | 1013.0 |
| 20260905150145 | 87 | 98 | 1.0 | 2.0 | 0.00 | 0.00 | 0.00 | 78 | 1012.8 |
| 20260905145142 | 87 | 90 | 1.0 | 3.0 | 0.00 | 0.00 | 0.00 | 78 | 1013.1 |
| 20260905144142 | 87 | 102 | 0.0 | 2.0 | 0.00 | 0.00 | 0.00 | 78 | 1013.1 |
| 20260905143137 | 86 | 111 | 1.0 | 2.0 | 0.00 | 0.00 | 0.00 | 80 | 1013.2 |
| 20260905142136 | 86 | 95 | 2.0 | 5.0 | 0.00 | 0.00 | 0.00 | 80 | 1013.1 |
| 20260905141132 | 85 | 107 | 1.0 | 3.0 | 0.00 | 0.00 | 0.00 | 81 | 1013.4 |
| 20260905140133 | 85 | 123 | 0.0 | 3.0 | 0.00 | 0.00 | 0.00 | 82 | 1013.1 |
| 20260905135129 | 84 | 115 | 1.0 | 3.0 | 0.00 | 0.00 | 0.00 | 83 | 1013.2 |
| 20260905134128 | 83 | 133 | 2.0 | 3.0 | 0.00 | 0.00 | 0.00 | 84 | 1013.3 |
| 20260905133124 | 82 | 46 | 1.0 | 2.0 | 0.00 | 0.00 | 0.00 | 87 | 1013.3 |
| 20260905132125 | 82 | 178 | 0.0 | 2.0 | 0.00 | 0.00 | 0.00 | 89 | 1013.4 |
| 20260905131120 | 80 | 109 | 0.0 | 1.0 | 0.00 | 0.00 | 0.00 | 93 | 1013.5 |
| 20260905130120 | 79 | 125 | 0.0 | 1.0 | 0.00 | 0.00 | 0.00 | 97 | 1013.5 |
| 20260905125116 | 78 | 98 | 1.0 | 5.0 | 0.00 | 0.00 | 0.00 | 98 | 1013.5 |
| 20260905124114 | 78 | 88 | 1.0 | 1.0 | 0.00 | 0.00 | 0.00 | 99 | 1013.7 |
| 20260905123112 | 78 | 118 | 1.0 | 1.0 | 0.00 | 0.00 | 0.00 | 99 | 1013.4 |
| 20260905122112 | 78 | 105 | 1.0 | 1.0 | 0.00 | 0.00 | 0.00 | 99 | 1013.2 |
| 20260905121108 | 77 | 100 | 1.0 | 2.0 | 0.00 | 0.00 | 0.00 | 99 | 1013.3 |